Time,TemperatureF,DewpointF,PressureIn,WindDirection,WindDirectionDegrees,WindSpeedMPH,WindSpeedGustMPH,Humidity,HourlyPrecipIn,Conditions,Clouds,dailyrainin,SoftwareType,DateUTC
2013-01-28 00:05:00,35.4,34.4,29.93,SE,144,3.0,4.0,96,0.00,,,0.01,Wunderground v.1.15,2013-01-28 06:05:00,
2013-01-28 00:15:00,35.6,34.6,29.93,SSE,155,4.0,4.0,96,0.00,,,0.01,Wunderground v.1.15,2013-01-28 06:15:00,
2013-01-28 00:20:00,35.6,34.6,29.93,SE,146,3.0,3.0,96,0.00,,,0.01,Wunderground v.1.15,2013-01-28 06:20:00,
2013-01-28 00:30:00,35.8,34.8,29.92,SE,146,2.0,4.0,96,0.00,,,0.01,Wunderground v.1.15,2013-01-28 06:30:00,
2013-01-28 00:35:00,35.9,35.1,29.92,SSE,150,2.0,4.0,97,0.00,,,0.01,Wunderground v.1.15,2013-01-28 06:35:00,
2013-01-28 00:40:00,36.2,35.4,29.92,SSE,149,3.0,4.0,97,0.00,,,0.01,Wunderground v.1.15,2013-01-28 06:40:00,
2013-01-28 00:45:00,36.4,35.4,29.92,SSE,150,4.0,5.0,96,0.00,,,0.01,Wunderground v.1.15,2013-01-28 06:45:00,
2013-01-28 00:55:00,36.7,35.9,29.91,SE,141,4.0,5.0,97,0.00,,,0.01,Wunderground v.1.15,2013-01-28 06:55:00,
2013-01-28 01:00:00,36.8,36.0,29.91,SSE,153,4.0,4.0,97,0.00,,,0.01,Wunderground v.1.15,2013-01-28 07:00:00,
2013-01-28 01:05:00,37.0,36.2,29.91,SE,146,3.0,4.0,97,0.00,,,0.01,Wunderground v.1.15,2013-01-28 07:05:00,
2013-01-28 01:15:00,37.5,36.7,29.90,SE,130,5.0,5.0,97,0.00,,,0.02,Wunderground v.1.15,2013-01-28 07:15:00,
2013-01-28 01:20:00,37.6,36.8,29.90,SE,143,4.0,4.0,97,0.00,,,0.02,Wunderground v.1.15,2013-01-28 07:20:00,
2013-01-28 01:25:00,37.8,37.0,29.90,SSE,157,4.0,4.0,97,0.00,,,0.02,Wunderground v.1.15,2013-01-28 07:25:00,
2013-01-28 01:30:00,38.1,37.3,29.90,SE,142,4.0,4.0,97,0.00,,,0.02,Wunderground v.1.15,2013-01-28 07:30:00,
2013-01-28 01:35:00,38.3,37.5,29.90,SSE,155,4.0,5.0,97,0.00,,,0.02,Wunderground v.1.15,2013-01-28 07:35:00,
2013-01-28 01:40:00,38.6,37.8,29.90,SE,144,4.0,6.0,97,0.00,,,0.02,Wunderground v.1.15,2013-01-28 07:40:00,
2013-01-28 01:45:00,38.9,38.1,29.90,SSE,151,5.0,6.0,97,0.00,,,0.02,Wunderground v.1.15,2013-01-28 07:45:00,
2013-01-28 01:55:00,39.5,38.7,29.89,SE,142,5.0,5.0,97,0.00,,,0.03,Wunderground v.1.15,2013-01-28 07:55:00,
2013-01-28 02:00:00,39.7,38.9,29.89,SSE,167,5.0,5.0,97,0.05,,,0.03,Wunderground v.1.15,2013-01-28 08:00:00,
2013-01-28 02:05:00,40.0,39.2,29.89,SE,142,4.0,5.0,97,0.05,,,0.04,Wunderground v.1.15,2013-01-28 08:05:00,
2013-01-28 02:15:00,40.2,39.4,29.89,SSE,165,4.0,6.0,97,0.04,,,0.04,Wunderground v.1.15,2013-01-28 08:15:00,
2013-01-28 02:20:00,40.5,39.7,29.89,SE,144,4.0,5.0,97,0.00,,,0.04,Wunderground v.1.15,2013-01-28 08:20:00,
2013-01-28 02:25:00,40.7,39.9,29.90,SSE,150,4.0,5.0,97,0.00,,,0.04,Wunderground v.1.15,2013-01-28 08:25:00,
2013-01-28 02:35:00,41.3,40.5,29.90,SSE,150,2.0,4.0,97,0.00,,,0.04,Wunderground v.1.15,2013-01-28 08:35:00,
2013-01-28 02:40:00,41.6,40.8,29.90,SSE,165,2.0,2.0,97,0.00,,,0.04,Wunderground v.1.15,2013-01-28 08:40:00,
2013-01-28 02:45:00,41.8,41.0,29.89,SSE,155,3.0,3.0,97,0.00,,,0.04,Wunderground v.1.15,2013-01-28 08:45:00,
2013-01-28 02:50:00,42.1,41.3,29.89,SE,136,2.0,2.0,97,0.00,,,0.04,Wunderground v.1.15,2013-01-28 08:50:00,
2013-01-28 02:55:00,42.4,41.6,29.89,SSE,150,2.0,2.0,97,0.00,,,0.05,Wunderground v.1.15,2013-01-28 08:55:00,
2013-01-28 03:05:00,43.1,42.3,29.89,South,173,1.0,1.0,97,0.00,,,0.05,Wunderground v.1.15,2013-01-28 09:05:00,
2013-01-28 03:15:00,43.8,43.0,29.88,SSW,202,1.0,1.0,97,0.00,,,0.05,Wunderground v.1.15,2013-01-28 09:15:00,
2013-01-28 03:25:00,44.0,43.2,29.88,SSE,167,0.0,2.0,97,0.00,,,0.05,Wunderground v.1.15,2013-01-28 09:25:00,
2013-01-28 03:30:00,44.2,43.4,29.89,SSW,205,1.0,1.0,97,0.00,,,0.05,Wunderground v.1.15,2013-01-28 09:30:00,
2013-01-28 03:35:00,44.5,44.0,29.88,SW,226,1.0,1.0,98,0.00,,,0.05,Wunderground v.1.15,2013-01-28 09:35:00,
2013-01-28 03:40:00,44.9,44.1,29.88,SSE,164,1.0,1.0,97,0.00,,,0.05,Wunderground v.1.15,2013-01-28 09:40:00,
2013-01-28 03:45:00,45.0,44.5,29.89,West,269,1.0,1.0,98,0.00,,,0.05,Wunderground v.1.15,2013-01-28 09:45:00,
2013-01-28 03:50:00,45.0,44.5,29.89,West,279,1.0,3.0,98,0.00,,,0.05,Wunderground v.1.15,2013-01-28 09:50:00,
2013-01-28 04:00:00,44.9,44.1,29.89,NW,314,1.0,1.0,97,0.00,,,0.05,Wunderground v.1.15,2013-01-28 10:00:00,
2013-01-28 04:05:00,44.8,44.0,29.89,SW,215,1.0,1.0,97,0.00,,,0.05,Wunderground v.1.15,2013-01-28 10:05:00,
2013-01-28 04:15:00,44.6,44.1,29.89,West,273,1.0,1.0,98,0.00,,,0.05,Wunderground v.1.15,2013-01-28 10:15:00,
2013-01-28 04:20:00,44.5,44.0,29.89,West,264,2.0,2.0,98,0.00,,,0.05,Wunderground v.1.15,2013-01-28 10:20:00,
2013-01-28 04:30:00,44.3,43.5,29.90,West,267,1.0,1.0,97,0.00,,,0.05,Wunderground v.1.15,2013-01-28 10:30:00,
2013-01-28 04:35:00,44.3,43.5,29.90,West,265,1.0,1.0,97,0.00,,,0.05,Wunderground v.1.15,2013-01-28 10:35:00,
2013-01-28 04:40:00,44.1,43.3,29.90,NNW,336,1.0,1.0,97,0.00,,,0.05,Wunderground v.1.15,2013-01-28 10:40:00,
2013-01-28 04:50:00,44.0,43.5,29.90,WSW,246,0.0,2.0,98,0.00,,,0.05,Wunderground v.1.15,2013-01-28 10:50:00,
2013-01-28 04:55:00,44.0,43.5,29.90,West,277,1.0,2.0,98,0.00,,,0.05,Wunderground v.1.15,2013-01-28 10:55:00,
2013-01-28 05:00:00,44.0,43.5,29.91,NW,323,0.0,0.0,98,0.00,,,0.05,Wunderground v.1.15,2013-01-28 11:00:00,
2013-01-28 05:05:00,44.1,43.6,29.91,West,276,0.0,0.0,98,0.00,,,0.05,Wunderground v.1.15,2013-01-28 11:05:00,
2013-01-28 05:15:00,44.1,43.6,29.91,West,281,1.0,1.0,98,0.00,,,0.05,Wunderground v.1.15,2013-01-28 11:15:00,
2013-01-28 05:20:00,44.1,43.6,29.91,West,271,0.0,0.0,98,0.00,,,0.05,Wunderground v.1.15,2013-01-28 11:20:00,
2013-01-28 05:25:00,44.1,43.6,29.91,West,261,1.0,1.0,98,0.00,,,0.05,Wunderground v.1.15,2013-01-28 11:25:00,
2013-01-28 05:30:00,44.2,43.7,29.91,NW,312,1.0,2.0,98,0.00,,,0.05,Wunderground v.1.15,2013-01-28 11:30:00,
2013-01-28 05:40:00,44.2,43.7,29.92,WSW,258,3.0,9.0,98,0.00,,,0.05,Wunderground v.1.15,2013-01-28 11:40:00,
2013-01-28 05:45:00,44.0,43.5,29.93,NW,312,2.0,9.0,98,0.00,,,0.05,Wunderground v.1.15,2013-01-28 11:45:00,
2013-01-28 05:50:00,43.7,42.9,29.92,WNW,302,2.0,4.0,97,0.00,,,0.05,Wunderground v.1.15,2013-01-28 11:50:00,
2013-01-28 05:55:00,43.5,43.0,29.92,NW,310,2.0,4.0,98,0.00,,,0.05,Wunderground v.1.15,2013-01-28 11:55:00,
2013-01-28 06:05:00,43.1,42.3,29.93,West,281,3.0,3.0,97,0.00,,,0.05,Wunderground v.1.15,2013-01-28 12:05:00,
2013-01-28 06:15:00,42.6,41.8,29.94,WSW,237,4.0,6.0,97,0.00,,,0.05,Wunderground v.1.15,2013-01-28 12:15:00,
2013-01-28 06:25:00,42.1,41.6,29.94,NNW,342,3.0,4.0,98,0.00,,,0.05,Wunderground v.1.15,2013-01-28 12:25:00,
2013-01-28 06:30:00,41.9,41.1,29.94,NNW,342,2.0,4.0,97,0.00,,,0.05,Wunderground v.1.15,2013-01-28 12:30:00,
2013-01-28 06:35:00,41.8,41.3,29.95,NW,311,2.0,4.0,98,0.00,,,0.05,Wunderground v.1.15,2013-01-28 12:35:00,
2013-01-28 06:40:00,41.5,41.0,29.95,NW,309,2.0,2.0,98,0.00,,,0.05,Wunderground v.1.15,2013-01-28 12:40:00,
2013-01-28 06:45:00,41.4,40.6,29.96,NW,315,2.0,3.0,97,0.00,,,0.05,Wunderground v.1.15,2013-01-28 12:45:00,
2013-01-28 06:50:00,41.1,40.6,29.96,NW,306,3.0,3.0,98,0.00,,,0.05,Wunderground v.1.15,2013-01-28 12:50:00,
2013-01-28 06:55:00,40.8,40.3,29.96,NW,311,3.0,4.0,98,0.00,,,0.05,Wunderground v.1.15,2013-01-28 12:55:00,
2013-01-28 07:00:00,40.5,39.7,29.97,NW,309,3.0,3.0,97,0.00,,,0.05,Wunderground v.1.15,2013-01-28 13:00:00,
2013-01-28 07:05:00,40.3,39.5,29.97,NW,318,2.0,3.0,97,0.00,,,0.05,Wunderground v.1.15,2013-01-28 13:05:00,
2013-01-28 07:15:00,39.7,38.9,29.98,NNW,340,2.0,4.0,97,0.00,,,0.05,Wunderground v.1.15,2013-01-28 13:15:00,
2013-01-28 07:20:00,39.5,38.7,29.98,NNW,346,3.0,3.0,97,0.00,,,0.05,Wunderground v.1.15,2013-01-28 13:20:00,
2013-01-28 07:25:00,39.3,38.5,29.98,NW,325,1.0,3.0,97,0.00,,,0.05,Wunderground v.1.15,2013-01-28 13:25:00,
2013-01-28 07:30:00,39.3,38.5,29.99,NNW,337,1.0,1.0,97,0.00,,,0.05,Wunderground v.1.15,2013-01-28 13:30:00,
2013-01-28 07:40:00,38.9,38.1,29.99,NNW,333,1.0,2.0,97,0.00,,,0.05,Wunderground v.1.15,2013-01-28 13:40:00,
2013-01-28 07:45:00,38.9,38.1,30.00,WNW,283,1.0,2.0,97,0.00,,,0.05,Wunderground v.1.15,2013-01-28 13:45:00,
2013-01-28 07:50:00,38.8,38.0,30.00,NW,315,1.0,1.0,97,0.00,,,0.05,Wunderground v.1.15,2013-01-28 13:50:00,
2013-01-28 07:55:00,38.7,37.9,30.00,NW,315,0.0,1.0,97,0.00,,,0.05,Wunderground v.1.15,2013-01-28 13:55:00,
2013-01-28 08:00:00,38.7,37.9,30.01,NW,315,0.0,0.0,97,0.00,,,0.05,Wunderground v.1.15,2013-01-28 14:00:00,
2013-01-28 08:05:00,38.6,37.8,30.01,NW,309,1.0,2.0,97,0.00,,,0.05,Wunderground v.1.15,2013-01-28 14:05:00,
2013-01-28 08:15:00,38.3,37.5,30.01,NW,325,1.0,3.0,97,0.00,,,0.05,Wunderground v.1.15,2013-01-28 14:15:00,
2013-01-28 08:20:00,38.3,37.5,30.01,NW,325,2.0,4.0,97,0.00,,,0.05,Wunderground v.1.15,2013-01-28 14:20:00,
2013-01-28 08:25:00,38.0,37.2,30.01,NNW,327,4.0,4.0,97,0.00,,,0.05,Wunderground v.1.15,2013-01-28 14:25:00,
2013-01-28 08:30:00,37.8,37.0,30.02,NNW,338,4.0,4.0,97,0.00,,,0.05,Wunderground v.1.15,2013-01-28 14:30:00,
2013-01-28 08:35:00,37.7,36.9,30.02,NNW,336,2.0,4.0,97,0.00,,,0.05,Wunderground v.1.15,2013-01-28 14:35:00,
2013-01-28 08:45:00,37.8,37.0,30.01,NNW,336,1.0,2.0,97,0.00,,,0.05,Wunderground v.1.15,2013-01-28 14:45:00,
2013-01-28 08:50:00,37.9,37.1,30.01,NNW,336,1.0,1.0,97,0.00,,,0.05,Wunderground v.1.15,2013-01-28 14:50:00,
2013-01-28 08:55:00,38.0,37.2,30.01,NNW,330,1.0,4.0,97,0.00,,,0.05,Wunderground v.1.15,2013-01-28 14:55:00,
2013-01-28 09:00:00,38.0,37.2,30.01,NW,311,2.0,2.0,97,0.00,,,0.05,Wunderground v.1.15,2013-01-28 15:00:00,
2013-01-28 09:05:00,38.1,37.3,30.01,NNW,327,2.0,2.0,97,0.00,,,0.05,Wunderground v.1.15,2013-01-28 15:05:00,
2013-01-28 09:15:00,38.0,37.2,30.02,NNW,334,2.0,2.0,97,0.00,,,0.05,Wunderground v.1.15,2013-01-28 15:15:00,
2013-01-28 09:20:00,38.3,37.5,30.01,NNW,331,1.0,5.0,97,0.00,,,0.05,Wunderground v.1.15,2013-01-28 15:20:00,
2013-01-28 09:25:00,38.3,37.5,30.01,NNW,339,1.0,5.0,97,0.00,,,0.05,Wunderground v.1.15,2013-01-28 15:25:00,
2013-01-28 09:30:00,38.5,37.7,30.01,NNW,340,1.0,1.0,97,0.00,,,0.05,Wunderground v.1.15,2013-01-28 15:30:00,
2013-01-28 09:35:00,38.7,37.9,30.01,NNW,340,0.0,1.0,97,0.00,,,0.05,Wunderground v.1.15,2013-01-28 15:35:00,
2013-01-28 09:45:00,38.6,37.8,30.01,NNW,337,2.0,6.0,97,0.00,,,0.05,Wunderground v.1.15,2013-01-28 15:45:00,
2013-01-28 09:50:00,38.6,38.1,30.01,North,349,2.0,2.0,98,0.00,,,0.05,Wunderground v.1.15,2013-01-28 15:50:00,
2013-01-28 09:55:00,38.9,38.1,30.02,North,360,1.0,2.0,97,0.00,,,0.05,Wunderground v.1.15,2013-01-28 15:55:00,
2013-01-28 10:00:00,39.1,38.3,30.03,North,355,0.0,0.0,97,0.00,,,0.05,Wunderground v.1.15,2013-01-28 16:00:00,
2013-01-28 10:05:00,39.5,38.7,30.03,WNW,290,1.0,1.0,97,0.00,,,0.05,Wunderground v.1.15,2013-01-28 16:05:00,
2013-01-28 10:15:00,39.4,38.6,30.03,NNW,346,2.0,2.0,97,0.00,,,0.05,Wunderground v.1.15,2013-01-28 16:15:00,
2013-01-28 10:20:00,39.2,38.4,30.04,NNW,341,2.0,2.0,97,0.00,,,0.05,Wunderground v.1.15,2013-01-28 16:20:00,
2013-01-28 10:30:00,39.8,39.3,30.03,NNW,344,2.0,3.0,98,0.00,,,0.05,Wunderground v.1.15,2013-01-28 16:30:00,
2013-01-28 10:40:00,39.4,38.6,30.04,NNW,340,2.0,2.0,97,0.00,,,0.05,Wunderground v.1.15,2013-01-28 16:40:00,
2013-01-28 10:45:00,40.2,39.4,30.04,NNW,336,1.0,4.0,97,0.00,,,0.05,Wunderground v.1.15,2013-01-28 16:45:00,
2013-01-28 10:55:00,40.0,39.2,30.04,NW,309,3.0,3.0,97,0.00,,,0.05,Wunderground v.1.15,2013-01-28 16:55:00,
2013-01-28 11:00:00,39.9,39.1,30.04,NW,321,2.0,2.0,97,0.00,,,0.05,Wunderground v.1.15,2013-01-28 17:00:00,
2013-01-28 11:05:00,39.7,38.9,30.05,NW,323,3.0,3.0,97,0.00,,,0.05,Wunderground v.1.15,2013-01-28 17:05:00,
2013-01-28 11:15:00,39.7,38.9,30.04,NNW,344,2.0,3.0,97,0.00,,,0.05,Wunderground v.1.15,2013-01-28 17:15:00,
2013-01-28 11:20:00,40.0,39.2,30.04,NNW,333,2.0,3.0,97,0.00,,,0.05,Wunderground v.1.15,2013-01-28 17:20:00,
2013-01-28 11:25:00,40.0,39.2,30.04,NNW,344,1.0,3.0,97,0.00,,,0.05,Wunderground v.1.15,2013-01-28 17:25:00,
2013-01-28 11:30:00,40.3,39.5,30.04,NNW,338,1.0,1.0,97,0.00,,,0.05,Wunderground v.1.15,2013-01-28 17:30:00,
2013-01-28 11:35:00,40.4,39.6,30.04,NNW,340,0.0,1.0,97,0.00,,,0.05,Wunderground v.1.15,2013-01-28 17:35:00,
2013-01-28 11:45:00,39.9,38.9,30.04,NNW,341,0.0,0.0,96,0.00,,,0.05,Wunderground v.1.15,2013-01-28 17:45:00,
2013-01-28 11:50:00,39.8,38.8,30.04,NNW,341,0.0,0.0,96,0.00,,,0.05,Wunderground v.1.15,2013-01-28 17:50:00,
2013-01-28 11:55:00,40.3,39.3,30.03,NNW,342,1.0,1.0,96,0.00,,,0.05,Wunderground v.1.15,2013-01-28 17:55:00,
2013-01-28 12:00:00,40.2,39.2,30.03,NW,325,1.0,1.0,96,0.00,,,0.05,Wunderground v.1.15,2013-01-28 18:00:00,
2013-01-28 12:05:00,40.7,39.6,30.02,NW,325,1.0,1.0,96,0.00,,,0.05,Wunderground v.1.15,2013-01-28 18:05:00,
2013-01-28 12:15:00,41.6,40.0,30.02,NW,322,2.0,4.0,94,0.00,,,0.05,Wunderground v.1.15,2013-01-28 18:15:00,
2013-01-28 12:20:00,41.6,39.4,30.01,NW,326,3.0,4.0,92,0.00,,,0.05,Wunderground v.1.15,2013-01-28 18:20:00,
2013-01-28 12:30:00,42.0,39.3,30.00,NNW,333,2.0,2.0,90,0.00,,,0.05,Wunderground v.1.15,2013-01-28 18:30:00,
2013-01-28 12:35:00,42.7,40.0,30.00,NNE,13,1.0,2.0,90,0.00,,,0.05,Wunderground v.1.15,2013-01-28 18:35:00,
2013-01-28 12:40:00,42.8,39.5,30.00,East,92,0.0,0.0,88,0.00,,,0.05,Wunderground v.1.15,2013-01-28 18:40:00,
2013-01-28 12:45:00,43.0,40.0,30.00,East,96,0.0,0.0,89,0.00,,,0.05,Wunderground v.1.15,2013-01-28 18:45:00,
2013-01-28 12:55:00,43.7,39.8,30.01,NNE,22,0.0,0.0,86,0.00,,,0.05,Wunderground v.1.15,2013-01-28 18:55:00,
2013-01-28 13:00:00,43.0,39.1,30.01,NNE,24,0.0,0.0,86,0.00,,,0.05,Wunderground v.1.15,2013-01-28 19:00:00,
2013-01-28 13:05:00,43.1,39.5,30.01,NNE,24,0.0,0.0,87,0.00,,,0.05,Wunderground v.1.15,2013-01-28 19:05:00,
2013-01-28 13:15:00,43.8,39.9,30.01,NNE,17,0.0,0.0,86,0.00,,,0.05,Wunderground v.1.15,2013-01-28 19:15:00,
2013-01-28 13:20:00,44.5,40.3,30.01,NNE,17,0.0,0.0,85,0.00,,,0.05,Wunderground v.1.15,2013-01-28 19:20:00,
2013-01-28 13:25:00,44.1,39.6,30.00,SSE,157,2.0,2.0,84,0.00,,,0.05,Wunderground v.1.15,2013-01-28 19:25:00,
2013-01-28 13:30:00,43.7,39.5,30.00,SSE,155,2.0,2.0,85,0.00,,,0.05,Wunderground v.1.15,2013-01-28 19:30:00,
2013-01-28 13:35:00,43.6,39.4,30.01,SSE,156,1.0,4.0,85,0.00,,,0.05,Wunderground v.1.15,2013-01-28 19:35:00,
2013-01-28 13:40:00,43.3,39.1,30.01,SE,139,1.0,1.0,85,0.00,,,0.05,Wunderground v.1.15,2013-01-28 19:40:00,
2013-01-28 13:45:00,43.6,39.4,30.01,SE,142,1.0,1.0,85,0.00,,,0.05,Wunderground v.1.15,2013-01-28 19:45:00,
2013-01-28 13:50:00,43.5,39.3,30.01,SE,142,1.0,1.0,85,0.00,,,0.05,Wunderground v.1.15,2013-01-28 19:50:00,
2013-01-28 13:55:00,43.3,39.1,30.01,SE,142,1.0,1.0,85,0.00,,,0.05,Wunderground v.1.15,2013-01-28 19:55:00,
2013-01-28 14:05:00,42.3,38.7,30.01,SE,146,3.0,4.0,87,0.00,,,0.05,Wunderground v.1.15,2013-01-28 20:05:00,
2013-01-28 14:15:00,42.3,39.0,30.01,SE,145,0.0,1.0,88,0.00,,,0.05,Wunderground v.1.15,2013-01-28 20:15:00,
2013-01-28 14:20:00,42.1,38.5,30.01,ESE,114,1.0,1.0,87,0.00,,,0.05,Wunderground v.1.15,2013-01-28 20:20:00,
2013-01-28 14:25:00,42.0,38.7,30.00,ESE,117,1.0,1.0,88,0.00,,,0.05,Wunderground v.1.15,2013-01-28 20:25:00,
2013-01-28 14:35:00,42.2,38.9,30.00,ESE,116,1.0,1.0,88,0.00,,,0.05,Wunderground v.1.15,2013-01-28 20:35:00,
2013-01-28 14:45:00,42.2,38.9,30.00,ESE,118,1.0,1.0,88,0.00,,,0.05,Wunderground v.1.15,2013-01-28 20:45:00,
2013-01-28 14:50:00,42.0,38.7,30.00,ESE,119,1.0,1.0,88,0.00,,,0.05,Wunderground v.1.15,2013-01-28 20:50:00,
2013-01-28 14:55:00,42.3,39.3,30.00,ESE,118,0.0,0.0,89,0.00,,,0.05,Wunderground v.1.15,2013-01-28 20:55:00,
2013-01-28 15:00:00,42.4,39.4,30.00,ENE,78,0.0,0.0,89,0.00,,,0.05,Wunderground v.1.15,2013-01-28 21:00:00,
2013-01-28 15:05:00,42.2,38.9,30.00,ESE,111,1.0,1.0,88,0.00,,,0.05,Wunderground v.1.15,2013-01-28 21:05:00,
2013-01-28 15:15:00,41.8,38.8,30.00,ESE,115,1.0,1.0,89,0.00,,,0.05,Wunderground v.1.15,2013-01-28 21:15:00,
2013-01-28 15:20:00,41.7,38.7,30.00,ESE,115,0.0,0.0,89,0.00,,,0.05,Wunderground v.1.15,2013-01-28 21:20:00,
2013-01-28 15:25:00,41.7,38.7,30.00,ESE,115,0.0,0.0,89,0.00,,,0.05,Wunderground v.1.15,2013-01-28 21:25:00,
2013-01-28 15:30:00,41.6,38.6,29.99,ESE,115,0.0,1.0,89,0.00,,,0.05,Wunderground v.1.15,2013-01-28 21:30:00,
2013-01-28 15:40:00,41.5,38.5,29.99,ESE,115,0.0,0.0,89,0.00,,,0.05,Wunderground v.1.15,2013-01-28 21:40:00,
2013-01-28 15:45:00,41.4,38.4,29.99,ESE,115,0.0,2.0,89,0.00,,,0.05,Wunderground v.1.15,2013-01-28 21:45:00,
2013-01-28 15:50:00,41.4,38.4,29.99,ESE,115,0.0,0.0,89,0.00,,,0.05,Wunderground v.1.15,2013-01-28 21:50:00,
2013-01-28 15:55:00,41.4,38.7,30.00,ESE,114,0.0,2.0,90,0.00,,,0.05,Wunderground v.1.15,2013-01-28 21:55:00,
2013-01-28 16:00:00,41.5,38.8,30.00,East,98,1.0,1.0,90,0.00,,,0.05,Wunderground v.1.15,2013-01-28 22:00:00,
2013-01-28 16:05:00,41.5,38.8,29.99,East,94,1.0,1.0,90,0.00,,,0.05,Wunderground v.1.15,2013-01-28 22:05:00,
2013-01-28 16:15:00,41.2,38.5,29.99,ESE,105,0.0,2.0,90,0.00,,,0.05,Wunderground v.1.15,2013-01-28 22:15:00,
2013-01-28 16:20:00,41.0,38.3,29.99,ESE,112,0.0,1.0,90,0.00,,,0.05,Wunderground v.1.15,2013-01-28 22:20:00,
2013-01-28 16:25:00,40.7,38.0,29.99,ESE,105,0.0,1.0,90,0.00,,,0.05,Wunderground v.1.15,2013-01-28 22:25:00,
2013-01-28 16:30:00,40.6,37.9,29.99,ESE,105,0.0,2.0,90,0.00,,,0.05,Wunderground v.1.15,2013-01-28 22:30:00,
2013-01-28 16:35:00,40.6,37.9,29.99,ESE,105,0.0,2.0,90,0.00,,,0.05,Wunderground v.1.15,2013-01-28 22:35:00,
2013-01-28 16:40:00,40.5,38.1,29.99,ESE,105,0.0,0.0,91,0.00,,,0.05,Wunderground v.1.15,2013-01-28 22:40:00,
2013-01-28 16:45:00,40.4,38.0,29.99,ESE,105,0.0,0.0,91,0.00,,,0.05,Wunderground v.1.15,2013-01-28 22:45:00,
2013-01-28 16:55:00,40.3,37.9,29.99,ESE,105,0.0,0.0,91,0.00,,,0.05,Wunderground v.1.15,2013-01-28 22:55:00,
2013-01-28 17:00:00,40.2,37.8,29.99,ESE,105,0.0,0.0,91,0.00,,,0.05,Wunderground v.1.15,2013-01-28 23:00:00,
2013-01-28 17:05:00,40.0,37.6,29.99,ESE,105,0.0,0.0,91,0.00,,,0.05,Wunderground v.1.15,2013-01-28 23:05:00,
2013-01-28 17:15:00,39.7,37.3,29.99,ESE,105,0.0,0.0,91,0.00,,,0.05,Wunderground v.1.15,2013-01-28 23:15:00,
2013-01-28 17:20:00,39.6,37.2,30.00,ESE,105,0.0,0.0,91,0.00,,,0.05,Wunderground v.1.15,2013-01-28 23:20:00,
2013-01-28 17:25:00,39.4,37.3,29.99,ESE,105,0.0,2.0,92,0.00,,,0.05,Wunderground v.1.15,2013-01-28 23:25:00,
2013-01-28 17:30:00,39.3,37.2,29.99,ESE,105,1.0,1.0,92,0.00,,,0.05,Wunderground v.1.15,2013-01-28 23:30:00,
2013-01-28 17:35:00,39.2,37.1,29.99,ESE,105,1.0,1.0,92,0.00,,,0.05,Wunderground v.1.15,2013-01-28 23:35:00,
2013-01-28 17:40:00,39.1,37.0,29.99,ESE,105,0.0,0.0,92,0.00,,,0.05,Wunderground v.1.15,2013-01-28 23:40:00,
2013-01-28 17:45:00,38.9,36.8,29.99,ESE,105,0.0,0.0,92,0.00,,,0.05,Wunderground v.1.15,2013-01-28 23:45:00,
2013-01-28 17:50:00,38.6,36.5,29.98,ESE,103,0.0,0.0,92,0.00,,,0.05,Wunderground v.1.15,2013-01-28 23:50:00,
2013-01-28 17:55:00,38.6,36.5,29.99,ESE,119,0.0,5.0,92,0.00,,,0.05,Wunderground v.1.15,2013-01-28 23:55:00,
2013-01-28 18:05:00,38.4,36.3,29.99,SE,141,0.0,1.0,92,0.00,,,0.05,Wunderground v.1.15,2013-01-29 00:05:00,
2013-01-28 18:15:00,38.1,36.0,30.00,SE,143,1.0,1.0,92,0.00,,,0.05,Wunderground v.1.15,2013-01-29 00:15:00,
2013-01-28 18:25:00,37.7,35.6,30.00,SE,146,1.0,1.0,92,0.00,,,0.05,Wunderground v.1.15,2013-01-29 00:25:00,
2013-01-28 18:35:00,37.7,35.9,29.99,SE,146,0.0,0.0,93,0.00,,,0.05,Wunderground v.1.15,2013-01-29 00:35:00,
2013-01-28 18:40:00,37.7,35.9,29.98,SE,128,0.0,0.0,93,0.00,,,0.05,Wunderground v.1.15,2013-01-29 00:40:00,
2013-01-28 18:45:00,37.6,35.8,29.98,SE,128,0.0,0.0,93,0.00,,,0.05,Wunderground v.1.15,2013-01-29 00:45:00,
2013-01-28 18:55:00,37.8,36.0,29.98,SE,136,0.0,0.0,93,0.00,,,0.05,Wunderground v.1.15,2013-01-29 00:55:00,
2013-01-28 19:00:00,37.8,36.0,29.98,SE,136,0.0,0.0,93,0.00,,,0.05,Wunderground v.1.15,2013-01-29 01:00:00,
2013-01-28 19:05:00,37.8,36.0,29.97,SE,136,0.0,0.0,93,0.00,,,0.05,Wunderground v.1.15,2013-01-29 01:05:00,
2013-01-28 19:15:00,37.8,36.0,29.97,SE,132,1.0,1.0,93,0.00,,,0.05,Wunderground v.1.15,2013-01-29 01:15:00,
2013-01-28 19:20:00,37.7,35.9,29.97,SSE,152,1.0,1.0,93,0.00,,,0.05,Wunderground v.1.15,2013-01-29 01:20:00,
2013-01-28 19:25:00,37.7,35.9,29.97,SSE,153,0.0,1.0,93,0.00,,,0.05,Wunderground v.1.15,2013-01-29 01:25:00,
2013-01-28 19:30:00,37.8,36.2,29.96,SE,127,0.0,0.0,94,0.00,,,0.05,Wunderground v.1.15,2013-01-29 01:30:00,
2013-01-28 19:35:00,37.9,36.3,29.96,SE,146,1.0,1.0,94,0.00,,,0.05,Wunderground v.1.15,2013-01-29 01:35:00,
2013-01-28 19:40:00,38.0,36.4,29.96,ESE,118,1.0,1.0,94,0.00,,,0.05,Wunderground v.1.15,2013-01-29 01:40:00,
2013-01-28 19:45:00,38.0,36.4,29.96,ESE,118,0.0,1.0,94,0.00,,,0.05,Wunderground v.1.15,2013-01-29 01:45:00,
2013-01-28 19:50:00,38.0,36.4,29.96,East,99,1.0,1.0,94,0.00,,,0.05,Wunderground v.1.15,2013-01-29 01:50:00,
2013-01-28 20:00:00,38.0,36.4,29.96,ESE,118,2.0,2.0,94,0.00,,,0.05,Wunderground v.1.15,2013-01-29 02:00:00,
2013-01-28 20:05:00,37.9,36.6,29.96,SE,127,2.0,2.0,95,0.00,,,0.05,Wunderground v.1.15,2013-01-29 02:05:00,
2013-01-28 20:15:00,37.9,36.6,29.95,SE,132,2.0,2.0,95,0.00,,,0.05,Wunderground v.1.15,2013-01-29 02:15:00,
2013-01-28 20:20:00,37.7,36.4,29.94,East,100,2.0,4.0,95,0.00,,,0.05,Wunderground v.1.15,2013-01-29 02:20:00,
2013-01-28 20:25:00,37.7,36.4,29.94,SSE,148,2.0,4.0,95,0.00,,,0.05,Wunderground v.1.15,2013-01-29 02:25:00,
2013-01-28 20:30:00,37.8,36.5,29.94,East,101,2.0,2.0,95,0.00,,,0.05,Wunderground v.1.15,2013-01-29 02:30:00,
2013-01-28 20:35:00,37.8,36.5,29.94,East,101,1.0,2.0,95,0.00,,,0.05,Wunderground v.1.15,2013-01-29 02:35:00,
2013-01-28 20:40:00,37.8,36.5,29.94,SE,133,2.0,2.0,95,0.00,,,0.05,Wunderground v.1.15,2013-01-29 02:40:00,
2013-01-28 20:50:00,37.8,36.5,29.93,ESE,110,1.0,6.0,95,0.00,,,0.05,Wunderground v.1.15,2013-01-29 02:50:00,
2013-01-28 20:55:00,37.8,36.5,29.92,SSE,152,2.0,6.0,95,0.00,,,0.05,Wunderground v.1.15,2013-01-29 02:55:00,
2013-01-28 21:00:00,37.8,36.8,29.92,ESE,121,2.0,2.0,96,0.00,,,0.05,Wunderground v.1.15,2013-01-29 03:00:00,
2013-01-28 21:05:00,37.8,36.8,29.92,ESE,110,2.0,2.0,96,0.00,,,0.05,Wunderground v.1.15,2013-01-29 03:05:00,
2013-01-28 21:15:00,38.0,37.0,29.91,SE,125,3.0,5.0,96,0.00,,,0.05,Wunderground v.1.15,2013-01-29 03:15:00,
2013-01-28 21:20:00,38.1,37.1,29.91,SE,137,3.0,4.0,96,0.00,,,0.05,Wunderground v.1.15,2013-01-29 03:20:00,
2013-01-28 21:30:00,38.3,37.3,29.89,East,94,2.0,2.0,96,0.00,,,0.05,Wunderground v.1.15,2013-01-29 03:30:00,
2013-01-28 21:35:00,38.4,37.4,29.89,ESE,117,2.0,2.0,96,0.00,,,0.05,Wunderground v.1.15,2013-01-29 03:35:00,
2013-01-28 21:40:00,38.7,37.7,29.88,SE,128,3.0,6.0,96,0.00,,,0.05,Wunderground v.1.15,2013-01-29 03:40:00,
2013-01-28 21:45:00,38.7,37.7,29.88,SSE,155,5.0,6.0,96,0.00,,,0.05,Wunderground v.1.15,2013-01-29 03:45:00,
2013-01-28 21:55:00,39.2,38.2,29.87,SE,136,4.0,5.0,96,0.00,,,0.05,Wunderground v.1.15,2013-01-29 03:55:00,
2013-01-28 22:00:00,39.1,38.1,29.86,East,95,3.0,3.0,96,0.00,,,0.05,Wunderground v.1.15,2013-01-29 04:00:00,
2013-01-28 22:05:00,38.9,37.9,29.85,ESE,109,1.0,3.0,96,0.00,,,0.05,Wunderground v.1.15,2013-01-29 04:05:00,
2013-01-28 22:15:00,38.9,37.9,29.85,East,95,2.0,4.0,96,0.00,,,0.05,Wunderground v.1.15,2013-01-29 04:15:00,
2013-01-28 22:20:00,39.1,38.1,29.85,SSE,147,3.0,3.0,96,1.13,,,0.06,Wunderground v.1.15,2013-01-29 04:20:00,
2013-01-28 22:25:00,39.1,38.1,29.84,East,84,2.0,3.0,96,0.35,,,0.11,Wunderground v.1.15,2013-01-29 04:25:00,
2013-01-28 22:35:00,40.7,39.9,29.82,SSE,149,5.0,8.0,97,0.05,,,0.11,Wunderground v.1.15,2013-01-29 04:35:00,
2013-01-28 22:40:00,40.7,39.9,29.82,SSE,149,5.0,5.0,97,0.04,,,0.11,Wunderground v.1.15,2013-01-29 04:40:00,
2013-01-28 22:45:00,41.4,40.6,29.82,SE,134,4.0,5.0,97,0.00,,,0.11,Wunderground v.1.15,2013-01-29 04:45:00,
2013-01-28 22:55:00,43.2,42.4,29.81,SE,140,6.0,6.0,97,0.00,,,0.11,Wunderground v.1.15,2013-01-29 04:55:00,
2013-01-28 23:05:00,42.9,42.1,29.82,SE,141,6.0,6.0,97,0.00,,,0.11,Wunderground v.1.15,2013-01-29 05:05:00,
2013-01-28 23:10:00,43.3,42.5,29.81,SE,145,6.0,6.0,97,0.00,,,0.11,Wunderground v.1.15,2013-01-29 05:10:00,
2013-01-28 23:15:00,44.3,43.5,29.81,SE,134,7.0,7.0,97,0.00,,,0.11,Wunderground v.1.15,2013-01-29 05:15:00,
2013-01-28 23:20:00,44.0,43.2,29.80,SE,134,6.0,6.0,97,0.00,,,0.11,Wunderground v.1.15,2013-01-29 05:20:00,
2013-01-28 23:25:00,44.0,43.2,29.80,SSE,150,6.0,6.0,97,0.00,,,0.11,Wunderground v.1.15,2013-01-29 05:25:00,
2013-01-28 23:30:00,43.9,43.1,29.80,SE,138,5.0,5.0,97,0.00,,,0.11,Wunderground v.1.15,2013-01-29 05:30:00,
2013-01-28 23:35:00,44.3,43.5,29.79,SE,146,5.0,6.0,97,0.00,,,0.11,Wunderground v.1.15,2013-01-29 05:35:00,
2013-01-28 23:45:00,44.7,43.9,29.79,SE,132,6.0,6.0,97,0.00,,,0.11,Wunderground v.1.15,2013-01-29 05:45:00,
2013-01-28 23:50:00,45.2,44.4,29.79,SE,136,5.0,8.0,97,0.00,,,0.11,Wunderground v.1.15,2013-01-29 05:50:00,
2013-01-28 23:55:00,45.3,44.5,29.79,SSE,159,5.0,8.0,97,0.00,,,0.11,Wunderground v.1.15,2013-01-29 05:55:00,